sensor_id;sensor_type;location;lat;lon;timestamp;temperature;humidity
3542;DHT22;1785;47.388;8.538;2022-11-15T00:01:44;10.80;99.90
3542;DHT22;1785;47.388;8.538;2022-11-15T00:04:10;10.80;99.90
3542;DHT22;1785;47.388;8.538;2022-11-15T00:06:37;10.90;99.90
3542;DHT22;1785;47.388;8.538;2022-11-15T00:09:03;11.00;99.90
3542;DHT22;1785;47.388;8.538;2022-11-15T00:11:30;11.00;99.90
3542;DHT22;1785;47.388;8.538;2022-11-15T00:13:57;11.00;99.90
3542;DHT22;1785;47.388;8.538;2022-11-15T00:16:24;11.00;99.90
3542;DHT22;1785;47.388;8.538;2022-11-15T00:18:50;11.00;99.90
3542;DHT22;1785;47.388;8.538;2022-11-15T00:21:17;10.90;99.90
3542;DHT22;1785;47.388;8.538;2022-11-15T00:23:44;10.90;99.90
3542;DHT22;1785;47.388;8.538;2022-11-15T00:26:12;11.00;99.90
3542;DHT22;1785;47.388;8.538;2022-11-15T00:28:40;10.90;99.90
3542;DHT22;1785;47.388;8.538;2022-11-15T00:31:09;11.00;99.90
3542;DHT22;1785;47.388;8.538;2022-11-15T00:33:37;10.90;99.90
3542;DHT22;1785;47.388;8.538;2022-11-15T00:36:06;10.80;99.90
3542;DHT22;1785;47.388;8.538;2022-11-15T00:38:32;10.60;99.90
3542;DHT22;1785;47.388;8.538;2022-11-15T00:40:59;10.50;99.90
3542;DHT22;1785;47.388;8.538;2022-11-15T00:43:26;10.30;99.90
3542;DHT22;1785;47.388;8.538;2022-11-15T00:45:53;10.40;99.90
3542;DHT22;1785;47.388;8.538;2022-11-15T00:48:19;10.50;99.90
3542;DHT22;1785;47.388;8.538;2022-11-15T00:50:45;10.40;99.90
3542;DHT22;1785;47.388;8.538;2022-11-15T00:53:12;9.90;99.90
3542;DHT22;1785;47.388;8.538;2022-11-15T00:55:38;9.90;99.90
3542;DHT22;1785;47.388;8.538;2022-11-15T00:58:05;9.80;99.90
3542;DHT22;1785;47.388;8.538;2022-11-15T01:00:31;10.00;99.90
3542;DHT22;1785;47.388;8.538;2022-11-15T01:03:00;10.00;99.90
3542;DHT22;1785;47.388;8.538;2022-11-15T01:05:26;10.10;99.90
3542;DHT22;1785;47.388;8.538;2022-11-15T01:07:53;10.20;99.90
3542;DHT22;1785;47.388;8.538;2022-11-15T01:10:20;10.20;99.90
3542;DHT22;1785;47.388;8.538;2022-11-15T01:12:46;10.30;99.90
3542;DHT22;1785;47.388;8.538;2022-11-15T01:15:12;10.20;99.90
3542;DHT22;1785;47.388;8.538;2022-11-15T01:17:39;10.30;99.90
3542;DHT22;1785;47.388;8.538;2022-11-15T01:20:07;10.40;99.90
3542;DHT22;1785;47.388;8.538;2022-11-15T01:22:34;10.50;99.90
3542;DHT22;1785;47.388;8.538;2022-11-15T01:25:00;10.60;99.90
3542;DHT22;1785;47.388;8.538;2022-11-15T01:27:27;10.70;99.90
3542;DHT22;1785;47.388;8.538;2022-11-15T01:29:54;10.70;99.90
3542;DHT22;1785;47.388;8.538;2022-11-15T01:32:20;10.70;99.90
3542;DHT22;1785;47.388;8.538;2022-11-15T01:34:47;10.60;99.90
3542;DHT22;1785;47.388;8.538;2022-11-15T01:37:14;10.50;99.90
3542;DHT22;1785;47.388;8.538;2022-11-15T01:39:40;10.50;99.90
3542;DHT22;1785;47.388;8.538;2022-11-15T01:42:10;10.70;99.90
3542;DHT22;1785;47.388;8.538;2022-11-15T01:44:43;10.80;99.90
3542;DHT22;1785;47.388;8.538;2022-11-15T01:47:14;10.80;99.90
3542;DHT22;1785;47.388;8.538;2022-11-15T01:49:47;10.90;99.90
3542;DHT22;1785;47.388;8.538;2022-11-15T01:52:19;10.80;99.90
3542;DHT22;1785;47.388;8.538;2022-11-15T01:54:46;10.60;99.90
3542;DHT22;1785;47.388;8.538;2022-11-15T01:57:13;10.50;99.90
3542;DHT22;1785;47.388;8.538;2022-11-15T01:59:42;10.60;99.90
3542;DHT22;1785;47.388;8.538;2022-11-15T02:02:10;10.70;99.90
3542;DHT22;1785;47.388;8.538;2022-11-15T02:04:40;10.80;99.90
3542;DHT22;1785;47.388;8.538;2022-11-15T02:07:09;10.90;99.90
3542;DHT22;1785;47.388;8.538;2022-11-15T02:09:37;10.90;99.90
3542;DHT22;1785;47.388;8.538;2022-11-15T02:12:05;10.90;99.90
3542;DHT22;1785;47.388;8.538;2022-11-15T02:14:32;11.00;99.90
3542;DHT22;1785;47.388;8.538;2022-11-15T02:17:05;11.00;99.90
3542;DHT22;1785;47.388;8.538;2022-11-15T02:19:48;10.70;99.90
3542;DHT22;1785;47.388;8.538;2022-11-15T02:22:28;10.40;99.90
3542;DHT22;1785;47.388;8.538;2022-11-15T02:25:08;10.40;99.90
3542;DHT22;1785;47.388;8.538;2022-11-15T02:30:40;10.70;99.90
3542;DHT22;1785;47.388;8.538;2022-11-15T02:33:19;10.60;99.90
3542;DHT22;1785;47.388;8.538;2022-11-15T02:35:56;10.30;99.90
3542;DHT22;1785;47.388;8.538;2022-11-15T02:38:29;10.30;99.90
3542;DHT22;1785;47.388;8.538;2022-11-15T02:41:00;10.20;99.90
3542;DHT22;1785;47.388;8.538;2022-11-15T02:43:33;10.40;99.90
3542;DHT22;1785;47.388;8.538;2022-11-15T02:46:23;10.60;99.90
3542;DHT22;1785;47.388;8.538;2022-11-15T02:49:13;10.80;99.90
3542;DHT22;1785;47.388;8.538;2022-11-15T02:51:42;10.60;99.90
3542;DHT22;1785;47.388;8.538;2022-11-15T02:54:12;10.20;99.90
3542;DHT22;1785;47.388;8.538;2022-11-15T02:56:40;10.20;99.90
3542;DHT22;1785;47.388;8.538;2022-11-15T02:59:18;10.50;99.90
3542;DHT22;1785;47.388;8.538;2022-11-15T03:01:56;10.70;99.90
3542;DHT22;1785;47.388;8.538;2022-11-15T03:04:36;10.80;99.90
3542;DHT22;1785;47.388;8.538;2022-11-15T03:07:10;10.80;99.90
3542;DHT22;1785;47.388;8.538;2022-11-15T03:09:40;10.30;99.90
3542;DHT22;1785;47.388;8.538;2022-11-15T03:12:12;10.10;99.90
3542;DHT22;1785;47.388;8.538;2022-11-15T03:14:45;10.00;99.90
3542;DHT22;1785;47.388;8.538;2022-11-15T03:17:21;9.90;99.90
3542;DHT22;1785;47.388;8.538;2022-11-15T03:19:51;9.90;99.90
3542;DHT22;1785;47.388;8.538;2022-11-15T03:22:22;10.20;99.90
3542;DHT22;1785;47.388;8.538;2022-11-15T03:24:53;10.50;99.90
3542;DHT22;1785;47.388;8.538;2022-11-15T03:27:24;10.60;99.90
3542;DHT22;1785;47.388;8.538;2022-11-15T03:29:56;10.50;99.90
3542;DHT22;1785;47.388;8.538;2022-11-15T03:32:26;10.40;99.90
3542;DHT22;1785;47.388;8.538;2022-11-15T03:34:57;10.50;99.90
3542;DHT22;1785;47.388;8.538;2022-11-15T03:37:29;10.70;99.90
3542;DHT22;1785;47.388;8.538;2022-11-15T03:39:58;10.60;99.90
3542;DHT22;1785;47.388;8.538;2022-11-15T03:42:29;10.50;99.90
3542;DHT22;1785;47.388;8.538;2022-11-15T03:45:01;10.60;99.90
3542;DHT22;1785;47.388;8.538;2022-11-15T03:47:32;10.60;99.90
3542;DHT22;1785;47.388;8.538;2022-11-15T03:50:04;10.20;99.90
3542;DHT22;1785;47.388;8.538;2022-11-15T03:52:32;10.10;99.90
3542;DHT22;1785;47.388;8.538;2022-11-15T03:55:01;10.20;99.90
3542;DHT22;1785;47.388;8.538;2022-11-15T03:57:28;10.20;99.90
3542;DHT22;1785;47.388;8.538;2022-11-15T03:59:55;10.00;99.90
3542;DHT22;1785;47.388;8.538;2022-11-15T04:02:21;10.00;99.90
3542;DHT22;1785;47.388;8.538;2022-11-15T04:04:48;10.20;99.90
3542;DHT22;1785;47.388;8.538;2022-11-15T04:07:15;10.50;99.90
3542;DHT22;1785;47.388;8.538;2022-11-15T04:09:41;10.50;99.90
3542;DHT22;1785;47.388;8.538;2022-11-15T04:12:22;10.50;99.90
3542;DHT22;1785;47.388;8.538;2022-11-15T04:14:57;10.40;99.90
3542;DHT22;1785;47.388;8.538;2022-11-15T04:17:37;10.40;99.90
3542;DHT22;1785;47.388;8.538;2022-11-15T04:20:05;10.20;99.90
3542;DHT22;1785;47.388;8.538;2022-11-15T04:22:52;10.10;99.90
3542;DHT22;1785;47.388;8.538;2022-11-15T04:25:37;10.30;99.90
3542;DHT22;1785;47.388;8.538;2022-11-15T04:28:04;10.40;99.90
3542;DHT22;1785;47.388;8.538;2022-11-15T04:30:30;10.50;99.90
3542;DHT22;1785;47.388;8.538;2022-11-15T04:32:57;10.60;99.90
3542;DHT22;1785;47.388;8.538;2022-11-15T04:35:24;10.60;99.90
3542;DHT22;1785;47.388;8.538;2022-11-15T04:37:50;10.60;99.90
3542;DHT22;1785;47.388;8.538;2022-11-15T04:40:17;10.70;99.90
3542;DHT22;1785;47.388;8.538;2022-11-15T04:42:43;10.60;99.90
3542;DHT22;1785;47.388;8.538;2022-11-15T04:45:10;10.50;99.90
3542;DHT22;1785;47.388;8.538;2022-11-15T04:47:37;10.50;99.90
3542;DHT22;1785;47.388;8.538;2022-11-15T04:50:04;10.60;99.90
3542;DHT22;1785;47.388;8.538;2022-11-15T04:52:31;10.60;99.90
3542;DHT22;1785;47.388;8.538;2022-11-15T04:54:58;10.50;99.90
3542;DHT22;1785;47.388;8.538;2022-11-15T04:57:24;10.30;99.90
3542;DHT22;1785;47.388;8.538;2022-11-15T04:59:50;10.20;99.90
3542;DHT22;1785;47.388;8.538;2022-11-15T05:02:18;10.10;99.90
3542;DHT22;1785;47.388;8.538;2022-11-15T05:04:44;10.20;99.90
3542;DHT22;1785;47.388;8.538;2022-11-15T05:07:10;10.20;99.90
3542;DHT22;1785;47.388;8.538;2022-11-15T05:09:37;10.30;99.90
3542;DHT22;1785;47.388;8.538;2022-11-15T05:12:04;10.10;99.90
3542;DHT22;1785;47.388;8.538;2022-11-15T05:14:30;9.90;99.90
3542;DHT22;1785;47.388;8.538;2022-11-15T05:16:57;10.00;99.90
3542;DHT22;1785;47.388;8.538;2022-11-15T05:19:23;10.10;99.90
3542;DHT22;1785;47.388;8.538;2022-11-15T05:21:50;10.20;99.90
3542;DHT22;1785;47.388;8.538;2022-11-15T05:24:16;10.30;99.90
3542;DHT22;1785;47.388;8.538;2022-11-15T05:26:43;10.40;99.90
3542;DHT22;1785;47.388;8.538;2022-11-15T05:29:09;10.40;99.90
3542;DHT22;1785;47.388;8.538;2022-11-15T05:31:39;10.50;99.90
3542;DHT22;1785;47.388;8.538;2022-11-15T05:34:06;10.50;99.90
3542;DHT22;1785;47.388;8.538;2022-11-15T05:36:35;10.50;99.90
3542;DHT22;1785;47.388;8.538;2022-11-15T05:39:02;10.50;99.90
3542;DHT22;1785;47.388;8.538;2022-11-15T05:41:32;10.50;99.90
3542;DHT22;1785;47.388;8.538;2022-11-15T05:44:00;10.50;99.90
3542;DHT22;1785;47.388;8.538;2022-11-15T05:46:28;10.30;99.90
3542;DHT22;1785;47.388;8.538;2022-11-15T05:48:56;10.20;99.90
3542;DHT22;1785;47.388;8.538;2022-11-15T05:51:23;10.30;99.90
3542;DHT22;1785;47.388;8.538;2022-11-15T05:53:51;10.40;99.90
3542;DHT22;1785;47.388;8.538;2022-11-15T05:56:18;10.50;99.90
3542;DHT22;1785;47.388;8.538;2022-11-15T05:58:45;10.50;99.90
3542;DHT22;1785;47.388;8.538;2022-11-15T06:01:12;10.50;99.90
3542;DHT22;1785;47.388;8.538;2022-11-15T06:03:38;10.50;99.90
3542;DHT22;1785;47.388;8.538;2022-11-15T06:06:05;10.60;99.90
3542;DHT22;1785;47.388;8.538;2022-11-15T06:08:32;10.70;99.90
3542;DHT22;1785;47.388;8.538;2022-11-15T06:11:03;10.70;99.90
3542;DHT22;1785;47.388;8.538;2022-11-15T06:13:30;10.70;99.90
3542;DHT22;1785;47.388;8.538;2022-11-15T06:15:57;10.80;99.90
3542;DHT22;1785;47.388;8.538;2022-11-15T06:18:25;10.70;99.90
3542;DHT22;1785;47.388;8.538;2022-11-15T06:20:51;10.50;99.90
3542;DHT22;1785;47.388;8.538;2022-11-15T06:23:18;10.80;99.90
3542;DHT22;1785;47.388;8.538;2022-11-15T06:25:45;10.80;99.90
3542;DHT22;1785;47.388;8.538;2022-11-15T06:28:12;11.50;99.90
3542;DHT22;1785;47.388;8.538;2022-11-15T06:30:38;12.00;99.90
3542;DHT22;1785;47.388;8.538;2022-11-15T06:33:05;12.50;99.90
3542;DHT22;1785;47.388;8.538;2022-11-15T06:35:34;13.00;99.90
3542;DHT22;1785;47.388;8.538;2022-11-15T06:38:05;13.30;99.90
3542;DHT22;1785;47.388;8.538;2022-11-15T06:40:34;13.60;99.90
3542;DHT22;1785;47.388;8.538;2022-11-15T06:43:01;13.90;99.90
3542;DHT22;1785;47.388;8.538;2022-11-15T06:45:27;14.10;99.90
3542;DHT22;1785;47.388;8.538;2022-11-15T06:47:54;14.30;99.90
3542;DHT22;1785;47.388;8.538;2022-11-15T06:50:20;14.50;99.90
3542;DHT22;1785;47.388;8.538;2022-11-15T06:52:48;14.60;99.90
3542;DHT22;1785;47.388;8.538;2022-11-15T06:55:15;14.70;99.90
3542;DHT22;1785;47.388;8.538;2022-11-15T06:57:47;14.30;99.90
3542;DHT22;1785;47.388;8.538;2022-11-15T07:00:15;13.80;99.90
3542;DHT22;1785;47.388;8.538;2022-11-15T07:02:42;13.20;99.90
3542;DHT22;1785;47.388;8.538;2022-11-15T07:05:08;12.60;99.90
3542;DHT22;1785;47.388;8.538;2022-11-15T07:07:35;11.80;99.90
3542;DHT22;1785;47.388;8.538;2022-11-15T07:10:02;11.40;99.90
3542;DHT22;1785;47.388;8.538;2022-11-15T07:12:29;11.60;99.90
3542;DHT22;1785;47.388;8.538;2022-11-15T07:14:56;12.00;99.90
3542;DHT22;1785;47.388;8.538;2022-11-15T07:17:22;12.00;99.90
3542;DHT22;1785;47.388;8.538;2022-11-15T07:19:49;12.00;99.90
3542;DHT22;1785;47.388;8.538;2022-11-15T07:22:16;11.90;99.90
3542;DHT22;1785;47.388;8.538;2022-11-15T07:24:43;11.40;99.90
3542;DHT22;1785;47.388;8.538;2022-11-15T07:27:10;11.30;99.90
3542;DHT22;1785;47.388;8.538;2022-11-15T07:29:37;11.20;99.90
3542;DHT22;1785;47.388;8.538;2022-11-15T07:32:04;11.10;99.90
3542;DHT22;1785;47.388;8.538;2022-11-15T07:34:31;10.90;99.90
3542;DHT22;1785;47.388;8.538;2022-11-15T07:36:57;10.70;99.90
3542;DHT22;1785;47.388;8.538;2022-11-15T07:39:24;10.80;99.90
3542;DHT22;1785;47.388;8.538;2022-11-15T07:41:50;10.90;99.90
3542;DHT22;1785;47.388;8.538;2022-11-15T07:44:38;11.00;99.90
3542;DHT22;1785;47.388;8.538;2022-11-15T07:47:05;10.90;99.90
3542;DHT22;1785;47.388;8.538;2022-11-15T07:49:31;10.80;99.90
3542;DHT22;1785;47.388;8.538;2022-11-15T07:51:58;10.70;99.90
3542;DHT22;1785;47.388;8.538;2022-11-15T07:54:25;10.70;99.90
3542;DHT22;1785;47.388;8.538;2022-11-15T07:56:51;10.80;99.90
3542;DHT22;1785;47.388;8.538;2022-11-15T07:59:18;10.90;99.90
3542;DHT22;1785;47.388;8.538;2022-11-15T08:01:45;10.90;99.90
3542;DHT22;1785;47.388;8.538;2022-11-15T08:04:12;11.00;99.90
3542;DHT22;1785;47.388;8.538;2022-11-15T08:06:39;11.10;99.90
3542;DHT22;1785;47.388;8.538;2022-11-15T08:09:05;10.70;99.90
3542;DHT22;1785;47.388;8.538;2022-11-15T08:11:31;10.30;99.90
3542;DHT22;1785;47.388;8.538;2022-11-15T08:13:58;10.30;99.90
3542;DHT22;1785;47.388;8.538;2022-11-15T08:16:25;10.40;99.90
3542;DHT22;1785;47.388;8.538;2022-11-15T08:18:52;10.50;99.90
3542;DHT22;1785;47.388;8.538;2022-11-15T08:21:19;10.40;99.90
3542;DHT22;1785;47.388;8.538;2022-11-15T08:23:46;10.30;99.90
3542;DHT22;1785;47.388;8.538;2022-11-15T08:26:13;10.30;99.90
3542;DHT22;1785;47.388;8.538;2022-11-15T08:28:40;10.30;99.90
3542;DHT22;1785;47.388;8.538;2022-11-15T08:31:06;10.50;99.90
3542;DHT22;1785;47.388;8.538;2022-11-15T08:33:33;10.60;99.90
3542;DHT22;1785;47.388;8.538;2022-11-15T08:36:02;10.70;99.90
3542;DHT22;1785;47.388;8.538;2022-11-15T08:38:29;11.00;99.90
3542;DHT22;1785;47.388;8.538;2022-11-15T08:41:00;11.20;99.90
3542;DHT22;1785;47.388;8.538;2022-11-15T08:43:27;11.40;99.90
3542;DHT22;1785;47.388;8.538;2022-11-15T08:45:55;11.40;99.90
3542;DHT22;1785;47.388;8.538;2022-11-15T08:48:22;11.50;99.90
3542;DHT22;1785;47.388;8.538;2022-11-15T08:50:49;11.60;99.90
3542;DHT22;1785;47.388;8.538;2022-11-15T08:53:16;11.70;99.90
3542;DHT22;1785;47.388;8.538;2022-11-15T08:55:42;11.80;99.90
3542;DHT22;1785;47.388;8.538;2022-11-15T08:58:09;11.70;99.90
3542;DHT22;1785;47.388;8.538;2022-11-15T09:00:35;11.30;99.90
3542;DHT22;1785;47.388;8.538;2022-11-15T09:03:04;11.00;99.90
3542;DHT22;1785;47.388;8.538;2022-11-15T09:05:31;11.30;99.90
3542;DHT22;1785;47.388;8.538;2022-11-15T09:07:59;11.40;99.90
3542;DHT22;1785;47.388;8.538;2022-11-15T09:10:26;11.40;99.90
3542;DHT22;1785;47.388;8.538;2022-11-15T09:12:53;11.60;99.90
3542;DHT22;1785;47.388;8.538;2022-11-15T09:15:20;11.70;99.90
3542;DHT22;1785;47.388;8.538;2022-11-15T09:17:46;11.80;99.90
3542;DHT22;1785;47.388;8.538;2022-11-15T09:20:14;11.90;99.90
3542;DHT22;1785;47.388;8.538;2022-11-15T09:22:41;12.10;99.90
3542;DHT22;1785;47.388;8.538;2022-11-15T09:25:08;11.80;99.90
3542;DHT22;1785;47.388;8.538;2022-11-15T09:27:35;11.90;99.90
3542;DHT22;1785;47.388;8.538;2022-11-15T09:30:03;12.00;99.90
3542;DHT22;1785;47.388;8.538;2022-11-15T09:32:30;12.30;99.90
3542;DHT22;1785;47.388;8.538;2022-11-15T09:34:57;12.30;99.90
3542;DHT22;1785;47.388;8.538;2022-11-15T09:37:23;12.40;99.90
3542;DHT22;1785;47.388;8.538;2022-11-15T09:39:50;12.30;99.90
3542;DHT22;1785;47.388;8.538;2022-11-15T09:42:36;12.30;99.90
3542;DHT22;1785;47.388;8.538;2022-11-15T09:45:16;12.40;99.90
3542;DHT22;1785;47.388;8.538;2022-11-15T09:48:15;12.50;99.90
3542;DHT22;1785;47.388;8.538;2022-11-15T09:50:48;12.10;99.90
3542;DHT22;1785;47.388;8.538;2022-11-15T09:53:22;12.20;99.90
3542;DHT22;1785;47.388;8.538;2022-11-15T09:55:56;12.20;99.90
3542;DHT22;1785;47.388;8.538;2022-11-15T09:58:33;12.20;99.90
3542;DHT22;1785;47.388;8.538;2022-11-15T10:01:07;11.90;99.90
3542;DHT22;1785;47.388;8.538;2022-11-15T10:03:35;11.60;99.90
3542;DHT22;1785;47.388;8.538;2022-11-15T10:06:05;11.50;99.90
3542;DHT22;1785;47.388;8.538;2022-11-15T10:08:51;11.70;99.90
3542;DHT22;1785;47.388;8.538;2022-11-15T10:11:20;12.00;99.90
3542;DHT22;1785;47.388;8.538;2022-11-15T10:13:51;12.20;99.90
3542;DHT22;1785;47.388;8.538;2022-11-15T10:16:51;12.40;99.90
3542;DHT22;1785;47.388;8.538;2022-11-15T10:19:26;12.60;99.90
3542;DHT22;1785;47.388;8.538;2022-11-15T10:22:00;12.60;99.90
3542;DHT22;1785;47.388;8.538;2022-11-15T10:24:35;12.40;99.90
3542;DHT22;1785;47.388;8.538;2022-11-15T10:27:09;12.10;99.90
3542;DHT22;1785;47.388;8.538;2022-11-15T10:29:42;11.90;99.90
3542;DHT22;1785;47.388;8.538;2022-11-15T10:32:10;11.80;99.90
3542;DHT22;1785;47.388;8.538;2022-11-15T10:34:37;12.20;99.90
3542;DHT22;1785;47.388;8.538;2022-11-15T10:37:04;12.70;99.90
3542;DHT22;1785;47.388;8.538;2022-11-15T10:39:31;12.60;99.90
3542;DHT22;1785;47.388;8.538;2022-11-15T10:42:15;12.70;99.90
3542;DHT22;1785;47.388;8.538;2022-11-15T10:44:44;12.50;99.90
3542;DHT22;1785;47.388;8.538;2022-11-15T10:47:32;12.60;99.90
3542;DHT22;1785;47.388;8.538;2022-11-15T10:50:01;12.70;99.90
3542;DHT22;1785;47.388;8.538;2022-11-15T10:52:29;12.70;99.90
3542;DHT22;1785;47.388;8.538;2022-11-15T10:55:00;12.90;99.90
3542;DHT22;1785;47.388;8.538;2022-11-15T10:57:30;13.00;99.90
3542;DHT22;1785;47.388;8.538;2022-11-15T11:00:06;13.10;99.90
3542;DHT22;1785;47.388;8.538;2022-11-15T11:02:35;12.70;99.90
3542;DHT22;1785;47.388;8.538;2022-11-15T11:05:04;12.50;99.90
3542;DHT22;1785;47.388;8.538;2022-11-15T11:07:33;12.50;99.90
3542;DHT22;1785;47.388;8.538;2022-11-15T11:10:17;12.80;99.90
3542;DHT22;1785;47.388;8.538;2022-11-15T11:12:45;12.90;99.90
3542;DHT22;1785;47.388;8.538;2022-11-15T11:15:14;13.00;99.90
3542;DHT22;1785;47.388;8.538;2022-11-15T11:17:51;13.10;99.90
3542;DHT22;1785;47.388;8.538;2022-11-15T11:20:24;13.20;99.90
3542;DHT22;1785;47.388;8.538;2022-11-15T11:23:02;13.30;99.90
3542;DHT22;1785;47.388;8.538;2022-11-15T11:25:34;13.40;99.90
3542;DHT22;1785;47.388;8.538;2022-11-15T11:28:17;13.50;99.90
3542;DHT22;1785;47.388;8.538;2022-11-15T11:30:56;13.60;99.90
3542;DHT22;1785;47.388;8.538;2022-11-15T11:33:26;13.60;99.90
3542;DHT22;1785;47.388;8.538;2022-11-15T11:36:03;13.50;99.90
3542;DHT22;1785;47.388;8.538;2022-11-15T11:38:42;13.20;99.90
3542;DHT22;1785;47.388;8.538;2022-11-15T11:41:20;12.80;99.90
3542;DHT22;1785;47.388;8.538;2022-11-15T11:43:59;13.10;99.90
3542;DHT22;1785;47.388;8.538;2022-11-15T11:46:49;13.30;99.90
3542;DHT22;1785;47.388;8.538;2022-11-15T11:49:23;13.60;99.90
3542;DHT22;1785;47.388;8.538;2022-11-15T11:51:54;13.70;99.90
3542;DHT22;1785;47.388;8.538;2022-11-15T11:54:25;13.50;99.90
3542;DHT22;1785;47.388;8.538;2022-11-15T11:56:58;13.50;99.90
3542;DHT22;1785;47.388;8.538;2022-11-15T11:59:33;13.20;99.90
3542;DHT22;1785;47.388;8.538;2022-11-15T12:02:14;13.40;99.90
3542;DHT22;1785;47.388;8.538;2022-11-15T12:04:44;13.50;99.90
3542;DHT22;1785;47.388;8.538;2022-11-15T12:07:17;13.70;99.90
3542;DHT22;1785;47.388;8.538;2022-11-15T12:09:51;13.80;99.90
3542;DHT22;1785;47.388;8.538;2022-11-15T12:12:23;13.90;99.90
3542;DHT22;1785;47.388;8.538;2022-11-15T12:14:53;13.60;99.90
3542;DHT22;1785;47.388;8.538;2022-11-15T12:17:23;12.90;99.90
3542;DHT22;1785;47.388;8.538;2022-11-15T12:19:51;12.90;99.90
3542;DHT22;1785;47.388;8.538;2022-11-15T12:22:20;13.10;99.90
3542;DHT22;1785;47.388;8.538;2022-11-15T12:24:52;13.40;99.90
3542;DHT22;1785;47.388;8.538;2022-11-15T12:27:33;13.70;99.90
3542;DHT22;1785;47.388;8.538;2022-11-15T12:30:04;13.90;99.90
3542;DHT22;1785;47.388;8.538;2022-11-15T12:32:37;14.00;99.90
3542;DHT22;1785;47.388;8.538;2022-11-15T12:35:06;14.00;99.90
3542;DHT22;1785;47.388;8.538;2022-11-15T12:37:48;14.00;99.90
3542;DHT22;1785;47.388;8.538;2022-11-15T12:40:35;14.00;99.90
3542;DHT22;1785;47.388;8.538;2022-11-15T12:46:02;14.10;99.90
3542;DHT22;1785;47.388;8.538;2022-11-15T12:48:57;14.00;99.90
3542;DHT22;1785;47.388;8.538;2022-11-15T12:54:54;14.10;99.90
3542;DHT22;1785;47.388;8.538;2022-11-15T12:57:41;14.10;99.90
3542;DHT22;1785;47.388;8.538;2022-11-15T13:03:19;14.10;99.90
3542;DHT22;1785;47.388;8.538;2022-11-15T13:05:59;13.90;99.90
3542;DHT22;1785;47.388;8.538;2022-11-15T13:08:46;13.70;99.90
3542;DHT22;1785;47.388;8.538;2022-11-15T13:11:48;13.70;99.90
3542;DHT22;1785;47.388;8.538;2022-11-15T13:14:40;13.90;99.90
3542;DHT22;1785;47.388;8.538;2022-11-15T13:17:26;13.90;99.90
3542;DHT22;1785;47.388;8.538;2022-11-15T13:19:58;14.00;99.90
3542;DHT22;1785;47.388;8.538;2022-11-15T13:22:26;13.90;99.90
3542;DHT22;1785;47.388;8.538;2022-11-15T13:25:23;14.00;99.90
3542;DHT22;1785;47.388;8.538;2022-11-15T13:27:54;13.90;99.90
3542;DHT22;1785;47.388;8.538;2022-11-15T13:30:24;13.70;99.90
3542;DHT22;1785;47.388;8.538;2022-11-15T13:32:52;14.00;99.90
3542;DHT22;1785;47.388;8.538;2022-11-15T13:35:21;14.00;99.90
3542;DHT22;1785;47.388;8.538;2022-11-15T13:37:49;13.90;99.90
3542;DHT22;1785;47.388;8.538;2022-11-15T13:40:21;13.70;99.90
3542;DHT22;1785;47.388;8.538;2022-11-15T13:42:48;13.90;99.90
3542;DHT22;1785;47.388;8.538;2022-11-15T13:45:17;14.00;99.90
3542;DHT22;1785;47.388;8.538;2022-11-15T13:47:43;13.70;99.90
3542;DHT22;1785;47.388;8.538;2022-11-15T13:50:10;13.70;99.90
3542;DHT22;1785;47.388;8.538;2022-11-15T13:52:38;13.60;99.90
3542;DHT22;1785;47.388;8.538;2022-11-15T13:55:12;13.60;99.90
3542;DHT22;1785;47.388;8.538;2022-11-15T13:57:41;13.70;99.90
3542;DHT22;1785;47.388;8.538;2022-11-15T14:00:35;13.90;99.90
3542;DHT22;1785;47.388;8.538;2022-11-15T14:03:11;13.80;99.90
3542;DHT22;1785;47.388;8.538;2022-11-15T14:05:40;13.90;99.90
3542;DHT22;1785;47.388;8.538;2022-11-15T14:08:22;13.90;99.90
3542;DHT22;1785;47.388;8.538;2022-11-15T14:11:07;14.00;99.90
3542;DHT22;1785;47.388;8.538;2022-11-15T14:13:34;13.80;99.90
3542;DHT22;1785;47.388;8.538;2022-11-15T14:16:13;13.80;99.90
3542;DHT22;1785;47.388;8.538;2022-11-15T14:18:43;13.70;99.90
3542;DHT22;1785;47.388;8.538;2022-11-15T14:21:09;14.00;99.90
3542;DHT22;1785;47.388;8.538;2022-11-15T14:23:36;13.80;99.90
3542;DHT22;1785;47.388;8.538;2022-11-15T14:26:02;13.80;99.90
3542;DHT22;1785;47.388;8.538;2022-11-15T14:28:31;13.80;99.90
3542;DHT22;1785;47.388;8.538;2022-11-15T14:31:06;14.00;99.90
3542;DHT22;1785;47.388;8.538;2022-11-15T14:33:37;13.90;99.90
3542;DHT22;1785;47.388;8.538;2022-11-15T14:36:06;13.90;99.90
3542;DHT22;1785;47.388;8.538;2022-11-15T14:38:36;14.00;99.90
3542;DHT22;1785;47.388;8.538;2022-11-15T14:41:02;14.10;99.90
3542;DHT22;1785;47.388;8.538;2022-11-15T14:43:29;14.10;99.90
3542;DHT22;1785;47.388;8.538;2022-11-15T14:45:56;14.10;99.90
3542;DHT22;1785;47.388;8.538;2022-11-15T14:48:22;14.10;99.90
3542;DHT22;1785;47.388;8.538;2022-11-15T14:50:48;14.20;99.90
3542;DHT22;1785;47.388;8.538;2022-11-15T14:53:16;14.10;99.90
3542;DHT22;1785;47.388;8.538;2022-11-15T14:55:43;14.20;99.90
3542;DHT22;1785;47.388;8.538;2022-11-15T14:58:10;14.10;99.90
3542;DHT22;1785;47.388;8.538;2022-11-15T15:00:38;14.00;99.90
3542;DHT22;1785;47.388;8.538;2022-11-15T15:03:05;14.00;99.90
3542;DHT22;1785;47.388;8.538;2022-11-15T15:05:34;13.90;99.90
3542;DHT22;1785;47.388;8.538;2022-11-15T15:08:00;13.90;99.90
3542;DHT22;1785;47.388;8.538;2022-11-15T15:10:31;13.90;99.90
3542;DHT22;1785;47.388;8.538;2022-11-15T15:12:58;14.00;99.90
3542;DHT22;1785;47.388;8.538;2022-11-15T15:15:26;14.00;99.90
3542;DHT22;1785;47.388;8.538;2022-11-15T15:17:56;14.10;99.90
3542;DHT22;1785;47.388;8.538;2022-11-15T15:20:22;14.10;99.90
3542;DHT22;1785;47.388;8.538;2022-11-15T15:22:48;13.90;99.90
3542;DHT22;1785;47.388;8.538;2022-11-15T15:25:20;13.70;99.90
3542;DHT22;1785;47.388;8.538;2022-11-15T15:27:47;13.60;99.90
3542;DHT22;1785;47.388;8.538;2022-11-15T15:30:13;13.40;99.90
3542;DHT22;1785;47.388;8.538;2022-11-15T15:32:39;13.40;99.90
3542;DHT22;1785;47.388;8.538;2022-11-15T15:35:10;13.50;99.90
3542;DHT22;1785;47.388;8.538;2022-11-15T15:37:36;13.60;99.90
3542;DHT22;1785;47.388;8.538;2022-11-15T15:40:03;13.80;99.90
3542;DHT22;1785;47.388;8.538;2022-11-15T15:42:29;13.80;99.90
3542;DHT22;1785;47.388;8.538;2022-11-15T15:44:56;13.80;99.90
3542;DHT22;1785;47.388;8.538;2022-11-15T15:47:23;13.90;99.90
3542;DHT22;1785;47.388;8.538;2022-11-15T15:49:50;13.80;99.90
3542;DHT22;1785;47.388;8.538;2022-11-15T15:52:17;14.00;99.90
3542;DHT22;1785;47.388;8.538;2022-11-15T15:54:44;14.50;99.90
3542;DHT22;1785;47.388;8.538;2022-11-15T15:57:12;14.90;99.90
3542;DHT22;1785;47.388;8.538;2022-11-15T15:59:39;15.30;99.90
3542;DHT22;1785;47.388;8.538;2022-11-15T16:02:06;15.70;99.90
3542;DHT22;1785;47.388;8.538;2022-11-15T16:04:32;16.00;99.90
3542;DHT22;1785;47.388;8.538;2022-11-15T16:06:59;16.30;99.90
3542;DHT22;1785;47.388;8.538;2022-11-15T16:09:26;16.30;99.90
3542;DHT22;1785;47.388;8.538;2022-11-15T16:12:07;15.90;99.90
3542;DHT22;1785;47.388;8.538;2022-11-15T16:14:33;15.30;99.90
3542;DHT22;1785;47.388;8.538;2022-11-15T16:17:00;15.00;99.90
3542;DHT22;1785;47.388;8.538;2022-11-15T16:19:26;14.80;99.90
3542;DHT22;1785;47.388;8.538;2022-11-15T16:21:52;14.80;99.90
3542;DHT22;1785;47.388;8.538;2022-11-15T16:24:19;14.60;99.90
3542;DHT22;1785;47.388;8.538;2022-11-15T16:26:47;14.90;99.90
3542;DHT22;1785;47.388;8.538;2022-11-15T16:29:14;15.20;99.90
3542;DHT22;1785;47.388;8.538;2022-11-15T16:31:40;15.70;99.90
3542;DHT22;1785;47.388;8.538;2022-11-15T16:34:06;15.30;99.90